PWSweather.com
Personal Weather Stations
Station Observations
WATERF01
WaterfordIE

WaterfordIE

Lat: 52.2412507, Lon: -7.1414691

Elevation: 65

Station Type: Davis Vantage Vue

www.waterfordweather.com

High Low Average
Temperature 67.6°F19.8°C 54.9°F12.7°C 60.9°F16.1°C
Dew Point 61.0°F16.1°C 48.8°F9.3°C 54.6°F12.6°C
Winds 17.3 mph 27.8 kmh Calm Calm 7.0 mph WSW11.3 kmh WSW
Wind Gusts 28.8 mph46.3 kmh -- 11.0 mph17.7 kmh
Humidity 89% 71% 80%
Pressure 29.90 in1012.5 mb 29.54 in1000.3 mb -
Precipitation 0.81 in20.6 mm - -
Hour Temp Dew Point Humidity Winds Wind Gusts Pressure Precip Precip Rate Daily Precip Total
12:00 AM 54.9°F12.7°C 49.8°F9.9°C 83% 3.5 mph S5.6 kmh S 5.8 mph9.3 kmh 29.90 in1012.5 mb - 0.01 in0.3 mm 0.01 in0.3 mm
12:10 AM 55.0°F12.8°C 49.9°F9.9°C 83% 3.5 mph S5.6 kmh S 5.8 mph9.3 kmh 29.89 in1012.2 mb - 0.01 in0.3 mm 0.01 in0.3 mm
12:20 AM 55.3°F12.9°C 50.2°F10.1°C 83% 3.5 mph SSW5.6 kmh SSW 5.8 mph9.3 kmh 29.89 in1012.2 mb - 0.01 in0.3 mm 0.01 in0.3 mm
12:30 AM 55.7°F13.2°C 50.6°F10.3°C 83% 2.3 mph S3.7 kmh S 5.8 mph9.3 kmh 29.88 in1011.9 mb - 0.01 in0.3 mm 0.01 in0.3 mm
12:40 AM 56.0°F13.3°C 50.6°F10.3°C 82% 4.6 mph SSW7.4 kmh SSW 11.5 mph18.5 kmh 29.88 in1011.9 mb - 0.00 in0.0 mm 0.01 in0.3 mm
12:50 AM 56.5°F13.6°C 50.7°F10.4°C 81% 6.9 mph S11.1 kmh S 9.2 mph14.8 kmh 29.87 in1011.5 mb - 0.00 in0.0 mm 0.01 in0.3 mm
01:00 AM 56.7°F13.7°C 51.3°F10.7°C 82% 9.2 mph SSW14.8 kmh SSW 12.7 mph20.4 kmh 29.86 in1011.2 mb - 0.00 in0.0 mm 0.01 in0.3 mm
01:10 AM 57.0°F13.9°C 51.2°F10.7°C 81% 8.1 mph SSW13.0 kmh SSW 13.8 mph22.2 kmh 29.85 in1010.8 mb - 0.00 in0.0 mm 0.01 in0.3 mm
01:20 AM 57.1°F13.9°C 51.3°F10.7°C 81% 9.2 mph SSW14.8 kmh SSW 11.5 mph18.5 kmh 29.85 in1010.8 mb - 0.00 in0.0 mm 0.01 in0.3 mm
01:40 AM 56.8°F13.8°C 52.0°F11.1°C 84% 10.4 mph SSW16.7 kmh SSW 13.8 mph22.2 kmh 29.83 in1010.2 mb - 0.01 in0.3 mm 0.02 in0.5 mm
01:50 AM 56.6°F13.7°C 52.2°F11.2°C 85% 9.2 mph S14.8 kmh S 11.5 mph18.5 kmh 29.82 in1009.8 mb - 0.01 in0.3 mm 0.02 in0.5 mm
02:00 AM 56.5°F13.6°C 52.0°F11.1°C 85% 10.4 mph SSW16.7 kmh SSW 16.1 mph25.9 kmh 29.82 in1009.8 mb - 0.02 in0.5 mm 0.02 in0.5 mm
02:10 AM 56.4°F13.6°C 52.3°F11.3°C 86% 8.1 mph SSW13.0 kmh SSW 11.5 mph18.5 kmh 29.81 in1009.5 mb - 0.02 in0.5 mm 0.02 in0.5 mm
02:30 AM 56.5°F13.6°C 52.4°F11.3°C 86% 8.1 mph S13.0 kmh S 16.1 mph25.9 kmh 29.80 in1009.1 mb - 0.02 in0.5 mm 0.02 in0.5 mm
02:40 AM 56.7°F13.7°C 52.6°F11.4°C 86% 8.1 mph S13.0 kmh S 12.7 mph20.4 kmh 29.79 in1008.8 mb - 0.01 in0.3 mm 0.02 in0.5 mm
02:50 AM 56.8°F13.8°C 52.7°F11.5°C 86% 9.2 mph S14.8 kmh S 13.8 mph22.2 kmh 29.78 in1008.5 mb - 0.01 in0.3 mm 0.02 in0.5 mm
03:00 AM 56.9°F13.8°C 52.8°F11.6°C 86% 10.4 mph S16.7 kmh S 13.8 mph22.2 kmh 29.77 in1008.1 mb - 0.01 in0.3 mm 0.03 in0.8 mm
03:10 AM 57.1°F13.9°C 53.0°F11.7°C 86% 10.4 mph S16.7 kmh S 15.0 mph24.1 kmh 29.76 in1007.8 mb - 0.02 in0.5 mm 0.05 in1.3 mm
03:20 AM 57.3°F14.1°C 53.1°F11.7°C 86% 13.8 mph S22.2 kmh S 19.6 mph31.5 kmh 29.75 in1007.5 mb - 0.04 in1.0 mm 0.06 in1.5 mm
03:30 AM 57.4°F14.1°C 53.2°F11.8°C 86% 9.2 mph S14.8 kmh S 13.8 mph22.2 kmh 29.74 in1007.1 mb - 0.07 in1.8 mm 0.09 in2.3 mm
03:40 AM 57.4°F14.1°C 53.6°F12.0°C 87% 12.7 mph SSW20.4 kmh SSW 16.1 mph25.9 kmh 29.73 in1006.8 mb - 0.09 in2.3 mm 0.11 in2.8 mm
03:50 AM 57.5°F14.2°C 53.6°F12.0°C 87% 11.5 mph S18.5 kmh S 16.1 mph25.9 kmh 29.73 in1006.8 mb - 0.09 in2.3 mm 0.12 in3.0 mm
04:00 AM 57.6°F14.2°C 53.8°F12.1°C 87% 12.7 mph S20.4 kmh S 19.6 mph31.5 kmh 29.71 in1006.1 mb - 0.09 in2.3 mm 0.13 in3.3 mm
04:10 AM 57.7°F14.3°C 53.8°F12.1°C 87% 10.4 mph S16.7 kmh S 12.7 mph20.4 kmh 29.70 in1005.8 mb - 0.09 in2.3 mm 0.13 in3.3 mm
04:20 AM 57.8°F14.3°C 54.0°F12.2°C 87% 11.5 mph S18.5 kmh S 19.6 mph31.5 kmh 29.70 in1005.8 mb - 0.09 in2.3 mm 0.15 in3.8 mm
04:30 AM 57.9°F14.4°C 54.4°F12.4°C 88% 12.7 mph S20.4 kmh S 19.6 mph31.5 kmh 29.69 in1005.4 mb - 0.07 in1.8 mm 0.17 in4.3 mm
04:40 AM 58.0°F14.4°C 54.5°F12.5°C 88% 11.5 mph S18.5 kmh S 13.8 mph22.2 kmh 29.68 in1005.1 mb - 0.06 in1.5 mm 0.17 in4.3 mm
04:50 AM 58.3°F14.6°C 54.8°F12.7°C 88% 10.4 mph S16.7 kmh S 12.7 mph20.4 kmh 29.67 in1004.7 mb - 0.08 in2.0 mm 0.20 in5.1 mm
05:00 AM 58.7°F14.8°C 55.2°F12.9°C 88% 11.5 mph SSE18.5 kmh SSE 18.4 mph29.6 kmh 29.67 in1004.7 mb - 0.10 in2.5 mm 0.23 in5.8 mm
05:10 AM 58.9°F14.9°C 55.4°F13.0°C 88% 12.7 mph S20.4 kmh S 17.3 mph27.8 kmh 29.65 in1004.1 mb - 0.12 in3.0 mm 0.25 in6.4 mm
05:20 AM 59.1°F15.1°C 55.5°F13.1°C 88% 15.0 mph S24.1 kmh S 19.6 mph31.5 kmh 29.63 in1003.4 mb - 0.14 in3.6 mm 0.29 in7.4 mm
05:30 AM 59.2°F15.1°C 55.6°F13.1°C 88% 16.1 mph S25.9 kmh S 28.8 mph46.3 kmh 29.62 in1003.0 mb - 0.16 in4.1 mm 0.32 in8.1 mm
05:40 AM 59.3°F15.2°C 55.7°F13.2°C 88% 13.8 mph S22.2 kmh S 21.9 mph35.2 kmh 29.61 in1002.7 mb - 0.17 in4.3 mm 0.34 in8.6 mm
05:50 AM 59.6°F15.3°C 56.0°F13.3°C 88% 17.3 mph SSW27.8 kmh SSW 25.3 mph40.7 kmh 29.61 in1002.7 mb - 0.18 in4.6 mm 0.37 in9.4 mm
06:00 AM 59.9°F15.5°C 56.6°F13.7°C 89% 11.5 mph WSW18.5 kmh WSW 16.1 mph25.9 kmh 29.60 in1002.4 mb - 0.19 in4.8 mm 0.41 in10.4 mm
06:10 AM 59.9°F15.5°C 56.6°F13.7°C 89% 11.5 mph SW18.5 kmh SW 19.6 mph31.5 kmh 29.59 in1002.0 mb - 0.20 in5.1 mm 0.46 in11.7 mm
06:20 AM 59.9°F15.5°C 56.3°F13.5°C 88% 8.1 mph W13.0 kmh W 12.7 mph20.4 kmh 29.59 in1002.0 mb - 0.20 in5.1 mm 0.49 in12.4 mm
06:30 AM 59.7°F15.4°C 56.1°F13.4°C 88% 9.2 mph W14.8 kmh W 16.1 mph25.9 kmh 29.59 in1002.0 mb - 0.20 in5.1 mm 0.52 in13.2 mm
06:40 AM 59.7°F15.4°C 56.1°F13.4°C 88% 8.1 mph W13.0 kmh W 15.0 mph24.1 kmh 29.59 in1002.0 mb - 0.20 in5.1 mm 0.54 in13.7 mm
06:50 AM 59.7°F15.4°C 56.1°F13.4°C 88% 8.1 mph W13.0 kmh W 15.0 mph24.1 kmh 29.59 in1002.0 mb - 0.28 in7.1 mm 0.65 in16.5 mm
07:00 AM 59.6°F15.3°C 56.0°F13.3°C 88% 5.8 mph WSW9.3 kmh WSW 11.5 mph18.5 kmh 29.59 in1002.0 mb - 0.28 in7.1 mm 0.68 in17.3 mm
07:10 AM 59.6°F15.3°C 56.0°F13.3°C 88% 4.6 mph W7.4 kmh W 8.1 mph13.0 kmh 29.59 in1002.0 mb - 0.25 in6.4 mm 0.70 in17.8 mm
07:20 AM 59.6°F15.3°C 56.0°F13.3°C 88% 5.8 mph NW9.3 kmh NW 11.5 mph18.5 kmh 29.58 in1001.7 mb - 0.26 in6.6 mm 0.75 in19.1 mm
07:30 AM 59.7°F15.4°C 56.4°F13.6°C 89% 6.9 mph W11.1 kmh W 15.0 mph24.1 kmh 29.58 in1001.7 mb - 0.26 in6.6 mm 0.78 in19.8 mm
07:40 AM 59.8°F15.4°C 56.5°F13.6°C 89% 6.9 mph WSW11.1 kmh WSW 11.5 mph18.5 kmh 29.58 in1001.7 mb - 0.26 in6.6 mm 0.80 in20.3 mm
07:50 AM 59.9°F15.5°C 56.6°F13.7°C 89% 8.1 mph WSW13.0 kmh WSW 13.8 mph22.2 kmh 29.57 in1001.4 mb - 0.16 in4.1 mm 0.80 in20.3 mm
08:00 AM 60.0°F15.6°C 56.7°F13.7°C 89% 6.9 mph WNW11.1 kmh WNW 11.5 mph18.5 kmh 29.57 in1001.4 mb - 0.13 in3.3 mm 0.80 in20.3 mm
08:10 AM 60.1°F15.6°C 56.8°F13.8°C 89% 10.4 mph WNW16.7 kmh WNW 16.1 mph25.9 kmh 29.56 in1001.0 mb - 0.11 in2.8 mm 0.80 in20.3 mm
08:20 AM 60.3°F15.7°C 57.0°F13.9°C 89% 8.1 mph WNW13.0 kmh WNW 12.7 mph20.4 kmh 29.56 in1001.0 mb - 0.07 in1.8 mm 0.81 in20.6 mm
08:30 AM 60.2°F15.7°C 56.9°F13.8°C 89% 6.9 mph W11.1 kmh W 9.2 mph14.8 kmh 29.56 in1001.0 mb - 0.03 in0.8 mm 0.81 in20.6 mm
08:40 AM 60.3°F15.7°C 57.0°F13.9°C 89% 5.8 mph WNW9.3 kmh WNW 9.2 mph14.8 kmh 29.56 in1001.0 mb - 0.02 in0.5 mm 0.81 in20.6 mm
08:50 AM 60.4°F15.8°C 57.1°F13.9°C 89% 6.9 mph W11.1 kmh W 12.7 mph20.4 kmh 29.55 in1000.7 mb - 0.01 in0.3 mm 0.81 in20.6 mm
09:00 AM 60.6°F15.9°C 57.3°F14.1°C 89% 5.8 mph W9.3 kmh W 9.2 mph14.8 kmh 29.55 in1000.7 mb - 0.01 in0.3 mm 0.81 in20.6 mm
09:10 AM 60.8°F16.0°C 57.5°F14.2°C 89% 6.9 mph W11.1 kmh W 9.2 mph14.8 kmh 29.54 in1000.3 mb - 0.01 in0.3 mm 0.81 in20.6 mm
09:20 AM 61.2°F16.2°C 58.0°F14.4°C 89% 4.6 mph WSW7.4 kmh WSW 8.1 mph13.0 kmh 29.54 in1000.3 mb - 0.00 in0.0 mm 0.81 in20.6 mm
09:30 AM 61.8°F16.6°C 58.5°F14.7°C 89% 3.5 mph NW5.6 kmh NW 6.9 mph11.1 kmh 29.54 in1000.3 mb - 0.00 in0.0 mm 0.81 in20.6 mm
09:40 AM 62.0°F16.7°C 58.7°F14.8°C 89% 3.5 mph WSW5.6 kmh WSW 5.8 mph9.3 kmh 29.54 in1000.3 mb - 0.00 in0.0 mm 0.81 in20.6 mm
09:50 AM 62.3°F16.8°C 59.0°F15.0°C 89% 1.2 mph W1.9 kmh W 2.3 mph3.7 kmh 29.54 in1000.3 mb - 0.00 in0.0 mm 0.81 in20.6 mm
10:00 AM 62.6°F17.0°C 59.3°F15.2°C 89% 6.9 mph W11.1 kmh W 9.2 mph14.8 kmh 29.54 in1000.3 mb - 0.00 in0.0 mm 0.81 in20.6 mm
10:10 AM 62.9°F17.2°C 59.6°F15.3°C 89% 6.9 mph W11.1 kmh W 9.2 mph14.8 kmh 29.54 in1000.3 mb - 0.00 in0.0 mm 0.81 in20.6 mm
10:20 AM 63.0°F17.2°C 59.4°F15.2°C 88% 5.8 mph WSW9.3 kmh WSW 13.8 mph22.2 kmh 29.54 in1000.3 mb - 0.00 in0.0 mm 0.81 in20.6 mm
10:30 AM 63.4°F17.4°C 59.8°F15.4°C 88% 3.5 mph WNW5.6 kmh WNW 6.9 mph11.1 kmh 29.54 in1000.3 mb - 0.00 in0.0 mm 0.81 in20.6 mm
10:40 AM 63.9°F17.7°C 59.9°F15.5°C 87% 3.5 mph WNW5.6 kmh WNW 5.8 mph9.3 kmh 29.54 in1000.3 mb - 0.00 in0.0 mm 0.81 in20.6 mm
10:50 AM 64.7°F18.2°C 60.1°F15.6°C 85% 6.9 mph WNW11.1 kmh WNW 9.2 mph14.8 kmh 29.54 in1000.3 mb - 0.00 in0.0 mm 0.81 in20.6 mm
11:00 AM 66.0°F18.9°C 61.0°F16.1°C 84% 5.8 mph WNW9.3 kmh WNW 9.2 mph14.8 kmh 29.55 in1000.7 mb - 0.00 in0.0 mm 0.81 in20.6 mm
11:10 AM 66.3°F19.1°C 60.6°F15.9°C 82% 4.6 mph WNW7.4 kmh WNW 13.8 mph22.2 kmh 29.54 in1000.3 mb - 0.00 in0.0 mm 0.81 in20.6 mm
11:20 AM 66.7°F19.3°C 61.0°F16.1°C 82% 1.2 mph SW1.9 kmh SW 5.8 mph9.3 kmh 29.54 in1000.3 mb - 0.00 in0.0 mm 0.81 in20.6 mm
11:30 AM 67.0°F19.4°C 60.6°F15.9°C 80% 4.6 mph WNW7.4 kmh WNW 5.8 mph9.3 kmh 29.55 in1000.7 mb - 0.00 in0.0 mm 0.81 in20.6 mm
11:40 AM 67.2°F19.6°C 60.5°F15.8°C 79% 6.9 mph WNW11.1 kmh WNW 12.7 mph20.4 kmh 29.55 in1000.7 mb - 0.00 in0.0 mm 0.81 in20.6 mm
11:50 AM 67.4°F19.7°C 60.7°F15.9°C 79% 6.9 mph WNW11.1 kmh WNW 15.0 mph24.1 kmh 29.55 in1000.7 mb - 0.00 in0.0 mm 0.81 in20.6 mm
12:00 PM 67.6°F19.8°C 60.1°F15.6°C 77% 10.4 mph WNW16.7 kmh WNW 19.6 mph31.5 kmh 29.55 in1000.7 mb - 0.00 in0.0 mm 0.81 in20.6 mm
12:10 PM 67.2°F19.6°C 59.7°F15.4°C 77% 6.9 mph WNW11.1 kmh WNW 11.5 mph18.5 kmh 29.56 in1001.0 mb - 0.00 in0.0 mm 0.81 in20.6 mm
12:20 PM 66.6°F19.2°C 59.5°F15.3°C 78% 8.1 mph NNW13.0 kmh NNW 18.4 mph29.6 kmh 29.57 in1001.4 mb - 0.00 in0.0 mm 0.81 in20.6 mm
12:30 PM 65.1°F18.4°C 58.4°F14.7°C 79% 6.9 mph NW11.1 kmh NW 13.8 mph22.2 kmh 29.57 in1001.4 mb - 0.00 in0.0 mm 0.81 in20.6 mm
12:40 PM 65.0°F18.3°C 57.6°F14.2°C 77% 9.2 mph NW14.8 kmh NW 11.5 mph18.5 kmh 29.57 in1001.4 mb - 0.00 in0.0 mm 0.81 in20.6 mm
12:50 PM 65.2°F18.4°C 57.5°F14.2°C 76% 6.9 mph WNW11.1 kmh WNW 11.5 mph18.5 kmh 29.58 in1001.7 mb - 0.00 in0.0 mm 0.81 in20.6 mm
01:00 PM 65.5°F18.6°C 57.4°F14.1°C 75% 10.4 mph W16.7 kmh W 19.6 mph31.5 kmh 29.58 in1001.7 mb - 0.00 in0.0 mm 0.81 in20.6 mm
01:10 PM 65.5°F18.6°C 57.0°F13.9°C 74% 8.1 mph NW13.0 kmh NW 12.7 mph20.4 kmh 29.58 in1001.7 mb - 0.00 in0.0 mm 0.81 in20.6 mm
01:20 PM 65.0°F18.3°C 56.1°F13.4°C 73% 5.8 mph NW9.3 kmh NW 9.2 mph14.8 kmh 29.58 in1001.7 mb - 0.00 in0.0 mm 0.81 in20.6 mm
01:30 PM 65.1°F18.4°C 56.2°F13.4°C 73% 5.8 mph NW9.3 kmh NW 9.2 mph14.8 kmh 29.59 in1002.0 mb - 0.00 in0.0 mm 0.81 in20.6 mm
01:40 PM 65.2°F18.4°C 55.9°F13.3°C 72% 5.8 mph WNW9.3 kmh WNW 11.5 mph18.5 kmh 29.59 in1002.0 mb - 0.00 in0.0 mm 0.81 in20.6 mm
01:50 PM 65.1°F18.4°C 55.9°F13.3°C 72% 4.6 mph W7.4 kmh W 5.8 mph9.3 kmh 29.59 in1002.0 mb - 0.00 in0.0 mm 0.81 in20.6 mm
02:00 PM 65.4°F18.6°C 55.7°F13.2°C 71% 9.2 mph NW14.8 kmh NW 11.5 mph18.5 kmh 29.58 in1001.7 mb - 0.00 in0.0 mm 0.81 in20.6 mm
02:10 PM 65.7°F18.7°C 56.0°F13.3°C 71% 9.2 mph WNW14.8 kmh WNW 13.8 mph22.2 kmh 29.58 in1001.7 mb - 0.00 in0.0 mm 0.81 in20.6 mm
02:20 PM 65.5°F18.6°C 56.2°F13.4°C 72% 5.8 mph WNW9.3 kmh WNW 8.1 mph13.0 kmh 29.58 in1001.7 mb - 0.00 in0.0 mm 0.81 in20.6 mm
02:30 PM 65.9°F18.8°C 56.2°F13.4°C 71% 8.1 mph WNW13.0 kmh WNW 11.5 mph18.5 kmh 29.58 in1001.7 mb - 0.00 in0.0 mm 0.81 in20.6 mm
02:40 PM 66.1°F18.9°C 56.4°F13.6°C 71% 10.4 mph WNW16.7 kmh WNW 18.4 mph29.6 kmh 29.59 in1002.0 mb - 0.00 in0.0 mm 0.81 in20.6 mm
02:50 PM 66.0°F18.9°C 56.7°F13.7°C 72% 11.5 mph WNW18.5 kmh WNW 16.1 mph25.9 kmh 29.59 in1002.0 mb - 0.00 in0.0 mm 0.81 in20.6 mm
03:00 PM 65.9°F18.8°C 56.6°F13.7°C 72% 8.1 mph W13.0 kmh W 11.5 mph18.5 kmh 29.59 in1002.0 mb - 0.00 in0.0 mm 0.81 in20.6 mm
03:10 PM 65.6°F18.7°C 56.7°F13.7°C 73% 5.8 mph WNW9.3 kmh WNW 11.5 mph18.5 kmh 29.59 in1002.0 mb - 0.00 in0.0 mm 0.81 in20.6 mm
03:20 PM 65.3°F18.5°C 56.8°F13.8°C 74% 9.2 mph WNW14.8 kmh WNW 16.1 mph25.9 kmh 29.59 in1002.0 mb - 0.00 in0.0 mm 0.81 in20.6 mm
03:30 PM 64.9°F18.3°C 56.8°F13.8°C 75% 8.1 mph WNW13.0 kmh WNW 11.5 mph18.5 kmh 29.59 in1002.0 mb - 0.00 in0.0 mm 0.81 in20.6 mm
03:40 PM 64.7°F18.2°C 57.0°F13.9°C 76% 6.9 mph WNW11.1 kmh WNW 11.5 mph18.5 kmh 29.59 in1002.0 mb - 0.00 in0.0 mm 0.81 in20.6 mm
03:50 PM 64.9°F18.3°C 57.2°F14.0°C 76% 3.5 mph WNW5.6 kmh WNW 8.1 mph13.0 kmh 29.58 in1001.7 mb - 0.00 in0.0 mm 0.81 in20.6 mm
04:00 PM 65.0°F18.3°C 56.9°F13.8°C 75% 5.8 mph WNW9.3 kmh WNW 8.1 mph13.0 kmh 29.59 in1002.0 mb - 0.00 in0.0 mm 0.81 in20.6 mm
04:10 PM 65.3°F18.5°C 57.2°F14.0°C 75% 4.6 mph WNW7.4 kmh WNW 9.2 mph14.8 kmh 29.59 in1002.0 mb - 0.00 in0.0 mm 0.81 in20.6 mm
04:20 PM 65.2°F18.4°C 56.3°F13.5°C 73% 6.9 mph WNW11.1 kmh WNW 9.2 mph14.8 kmh 29.59 in1002.0 mb - 0.00 in0.0 mm 0.81 in20.6 mm
04:30 PM 65.4°F18.6°C 56.5°F13.6°C 73% 5.8 mph WNW9.3 kmh WNW 11.5 mph18.5 kmh 29.60 in1002.4 mb - 0.00 in0.0 mm 0.81 in20.6 mm
04:40 PM 65.1°F18.4°C 56.2°F13.4°C 73% 10.4 mph W16.7 kmh W 19.6 mph31.5 kmh 29.61 in1002.7 mb - 0.00 in0.0 mm 0.81 in20.6 mm
04:50 PM 65.2°F18.4°C 56.3°F13.5°C 73% 5.8 mph WNW9.3 kmh WNW 11.5 mph18.5 kmh 29.61 in1002.7 mb - 0.00 in0.0 mm 0.81 in20.6 mm
05:00 PM 65.0°F18.3°C 55.4°F13.0°C 71% 8.1 mph NW13.0 kmh NW 12.7 mph20.4 kmh 29.61 in1002.7 mb - 0.00 in0.0 mm 0.81 in20.6 mm
05:10 PM 64.9°F18.3°C 55.3°F12.9°C 71% 4.6 mph NW7.4 kmh NW 9.2 mph14.8 kmh 29.61 in1002.7 mb - 0.00 in0.0 mm 0.81 in20.6 mm
05:20 PM 64.8°F18.2°C 55.6°F13.1°C 72% 3.5 mph WNW5.6 kmh WNW 5.8 mph9.3 kmh 29.61 in1002.7 mb - 0.00 in0.0 mm 0.81 in20.6 mm
05:30 PM 64.8°F18.2°C 55.1°F12.8°C 71% 5.8 mph WNW9.3 kmh WNW 8.1 mph13.0 kmh 29.61 in1002.7 mb - 0.00 in0.0 mm 0.81 in20.6 mm
05:40 PM 64.5°F18.1°C 54.9°F12.7°C 71% 8.1 mph WNW13.0 kmh WNW 12.7 mph20.4 kmh 29.61 in1002.7 mb - 0.00 in0.0 mm 0.81 in20.6 mm
05:50 PM 64.5°F18.1°C 54.9°F12.7°C 71% 6.9 mph NW11.1 kmh NW 11.5 mph18.5 kmh 29.62 in1003.0 mb - 0.00 in0.0 mm 0.81 in20.6 mm
06:00 PM 64.2°F17.9°C 54.6°F12.6°C 71% 6.9 mph WNW11.1 kmh WNW 6.9 mph11.1 kmh 29.62 in1003.0 mb - 0.00 in0.0 mm 0.81 in20.6 mm
06:10 PM 63.5°F17.5°C 54.6°F12.6°C 73% 4.6 mph NW7.4 kmh NW 11.5 mph18.5 kmh 29.63 in1003.4 mb - 0.00 in0.0 mm 0.81 in20.6 mm
06:20 PM 62.7°F17.1°C 54.3°F12.4°C 74% 6.9 mph NW11.1 kmh NW 11.5 mph18.5 kmh 29.63 in1003.4 mb - 0.00 in0.0 mm 0.81 in20.6 mm
06:30 PM 62.2°F16.8°C 53.1°F11.7°C 72% 4.6 mph W7.4 kmh W 6.9 mph11.1 kmh 29.64 in1003.7 mb - 0.00 in0.0 mm 0.81 in20.6 mm
06:40 PM 62.0°F16.7°C 52.5°F11.4°C 71% 6.9 mph WNW11.1 kmh WNW 12.7 mph20.4 kmh 29.64 in1003.7 mb - 0.00 in0.0 mm 0.81 in20.6 mm
06:50 PM 61.8°F16.6°C 52.3°F11.3°C 71% 4.6 mph WNW7.4 kmh WNW 8.1 mph13.0 kmh 29.65 in1004.1 mb - 0.00 in0.0 mm 0.81 in20.6 mm
07:00 PM 61.4°F16.3°C 53.0°F11.7°C 74% 6.9 mph WNW11.1 kmh WNW 11.5 mph18.5 kmh 29.65 in1004.1 mb - 0.00 in0.0 mm 0.81 in20.6 mm
07:10 PM 60.8°F16.0°C 52.5°F11.4°C 74% 8.1 mph NW13.0 kmh NW 16.1 mph25.9 kmh 29.66 in1004.4 mb - 0.00 in0.0 mm 0.81 in20.6 mm
07:20 PM 60.3°F15.7°C 52.3°F11.3°C 75% 8.1 mph WNW13.0 kmh WNW 11.5 mph18.5 kmh 29.66 in1004.4 mb - 0.00 in0.0 mm 0.81 in20.6 mm
07:30 PM 60.0°F15.6°C 52.1°F11.2°C 75% 4.6 mph NW7.4 kmh NW 6.9 mph11.1 kmh 29.67 in1004.7 mb - 0.00 in0.0 mm 0.81 in20.6 mm
07:40 PM 59.6°F15.3°C 51.7°F10.9°C 75% 6.9 mph NW11.1 kmh NW 11.5 mph18.5 kmh 29.68 in1005.1 mb - 0.00 in0.0 mm 0.81 in20.6 mm
07:50 PM 59.4°F15.2°C 50.7°F10.4°C 73% 4.6 mph NW7.4 kmh NW 6.9 mph11.1 kmh 29.68 in1005.1 mb - 0.00 in0.0 mm 0.81 in20.6 mm
08:00 PM 59.5°F15.3°C 50.1°F10.1°C 71% 1.2 mph WNW1.9 kmh WNW 2.3 mph3.7 kmh 29.68 in1005.1 mb - 0.00 in0.0 mm 0.81 in20.6 mm
08:10 PM 59.3°F15.2°C 50.3°F10.2°C 72% 6.9 mph NW11.1 kmh NW 8.1 mph13.0 kmh 29.69 in1005.4 mb - 0.00 in0.0 mm 0.81 in20.6 mm
08:20 PM 58.7°F14.8°C 49.3°F9.6°C 71% 5.8 mph WNW9.3 kmh WNW 8.1 mph13.0 kmh 29.69 in1005.4 mb - 0.00 in0.0 mm 0.81 in20.6 mm
08:30 PM 58.5°F14.7°C 49.1°F9.5°C 71% 3.5 mph WNW5.6 kmh WNW 8.1 mph13.0 kmh 29.69 in1005.4 mb - 0.00 in0.0 mm 0.81 in20.6 mm
08:40 PM 58.4°F14.7°C 49.0°F9.4°C 71% 2.3 mph W3.7 kmh W 5.8 mph9.3 kmh 29.69 in1005.4 mb - 0.00 in0.0 mm 0.81 in20.6 mm
08:50 PM 58.2°F14.6°C 48.8°F9.3°C 71% 2.3 mph W3.7 kmh W 5.8 mph9.3 kmh 29.69 in1005.4 mb - 0.00 in0.0 mm 0.81 in20.6 mm
09:00 PM 58.0°F14.4°C 49.0°F9.4°C 72% 1.2 mph WSW1.9 kmh WSW 4.6 mph7.4 kmh 29.69 in1005.4 mb - 0.00 in0.0 mm 0.81 in20.6 mm
09:10 PM 57.9°F14.4°C 48.9°F9.4°C 72% Calm Calm -- 29.69 in1005.4 mb - 0.00 in0.0 mm 0.81 in20.6 mm
09:20 PM 57.9°F14.4°C 48.9°F9.4°C 72% 3.5 mph W5.6 kmh W 13.8 mph22.2 kmh 29.69 in1005.4 mb - 0.00 in0.0 mm 0.81 in20.6 mm
09:30 PM 58.0°F14.4°C 49.4°F9.7°C 73% 2.3 mph SW3.7 kmh SW 8.1 mph13.0 kmh 29.70 in1005.8 mb - 0.00 in0.0 mm 0.81 in20.6 mm
09:40 PM 57.7°F14.3°C 49.1°F9.5°C 73% 3.5 mph S5.6 kmh S 8.1 mph13.0 kmh 29.70 in1005.8 mb - 0.00 in0.0 mm 0.81 in20.6 mm
09:50 PM 57.3°F14.1°C 49.1°F9.5°C 74% Calm Calm -- 29.70 in1005.8 mb - 0.00 in0.0 mm 0.81 in20.6 mm
10:00 PM 57.2°F14.0°C 49.3°F9.6°C 75% 3.5 mph SW5.6 kmh SW 5.8 mph9.3 kmh 29.70 in1005.8 mb - 0.00 in0.0 mm 0.81 in20.6 mm
10:10 PM 57.1°F13.9°C 49.6°F9.8°C 76% 4.6 mph WNW7.4 kmh WNW 6.9 mph11.1 kmh 29.70 in1005.8 mb - 0.00 in0.0 mm 0.81 in20.6 mm
10:20 PM 56.9°F13.8°C 49.8°F9.9°C 77% 5.8 mph WNW9.3 kmh WNW 8.1 mph13.0 kmh 29.71 in1006.1 mb - 0.00 in0.0 mm 0.81 in20.6 mm
10:30 PM 56.8°F13.8°C 50.0°F10.0°C 78% 2.3 mph NW3.7 kmh NW 4.6 mph7.4 kmh 29.71 in1006.1 mb - 0.00 in0.0 mm 0.81 in20.6 mm
10:40 PM 56.8°F13.8°C 50.0°F10.0°C 78% 4.6 mph WSW7.4 kmh WSW 11.5 mph18.5 kmh 29.71 in1006.1 mb - 0.00 in0.0 mm 0.81 in20.6 mm
10:50 PM 56.7°F13.7°C 50.3°F10.2°C 79% 3.5 mph W5.6 kmh W 6.9 mph11.1 kmh 29.72 in1006.4 mb - 0.00 in0.0 mm 0.81 in20.6 mm
11:00 PM 56.5°F13.6°C 50.4°F10.2°C 80% 3.5 mph W5.6 kmh W 5.8 mph9.3 kmh 29.72 in1006.4 mb - 0.00 in0.0 mm 4.94 in125.5 mm
11:10 PM 56.5°F13.6°C 50.4°F10.2°C 80% 2.3 mph WSW3.7 kmh WSW 5.8 mph9.3 kmh 29.72 in1006.4 mb - 0.00 in0.0 mm 4.94 in125.5 mm
11:20 PM 56.3°F13.5°C 50.2°F10.1°C 80% 3.5 mph W5.6 kmh W 8.1 mph13.0 kmh 29.72 in1006.4 mb - 0.00 in0.0 mm 4.94 in125.5 mm
11:30 PM 56.2°F13.4°C 50.4°F10.2°C 81% 5.8 mph W9.3 kmh W 12.7 mph20.4 kmh 29.73 in1006.8 mb - 0.00 in0.0 mm 4.94 in125.5 mm
11:40 PM 56.0°F13.3°C 50.6°F10.3°C 82% 4.6 mph WNW7.4 kmh WNW 8.1 mph13.0 kmh 29.72 in1006.4 mb - 0.00 in0.0 mm 4.94 in125.5 mm
11:50 PM 56.0°F13.3°C 50.6°F10.3°C 82% 4.6 mph WSW7.4 kmh WSW 8.1 mph13.0 kmh 29.73 in1006.8 mb - 0.00 in0.0 mm 4.94 in125.5 mm